PWSweather.com
Personal Weather Stations
Station Observations

AwhituWaiuku, CA 268400

Lat: -37.058, Lon: -174.6346

Elevation: 250

Station Type: Personal

http://www.weather-display.com/windy/gb/grahamsbeach.htm

High Low Average
Temperature 63.8°F17.7°C 52.6°F11.4°C 57.9°F14.4°C
Dew Point 63.2°F17.3°C 52.1°F11.2°C 57.3°F14.1°C
Winds 20.8 mph 33.5 kmh Calm Calm 12.0 mph W19.3 kmh W
Wind Gusts 26.0 mph41.8 kmh -- 15.0 mph24.1 kmh
Humidity 98% 98% 98%
Pressure 30.30 in1026.1 mb 30.15 in1021.0 mb -
Precipitation 0.00 in0.0 mm - -
Hour Temp Dew Point Humidity Winds Wind Gusts Pressure Precip Precip Rate Daily Precip Total
12:00 AM 56.2°F13.4°C 55.6°F13.1°C 98% 13.6 mph WNW21.9 kmh WNW 18.0 mph29.0 kmh 30.16 in1021.3 mb 0.00 in0.0 mm 0.00 in/hr0.0 mm/hr 0.00 in0.0 mm
12:30 AM 56.7°F13.7°C 56.1°F13.4°C 98% 20.7 mph NW33.3 kmh NW 26.0 mph41.8 kmh 30.16 in1021.3 mb 0.00 in0.0 mm 0.00 in/hr0.0 mm/hr 0.00 in0.0 mm
01:00 AM 56.8°F13.8°C 56.2°F13.4°C 98% 14.7 mph NW23.7 kmh NW 18.0 mph29.0 kmh 30.16 in1021.3 mb 0.00 in0.0 mm 0.00 in/hr0.0 mm/hr 0.00 in0.0 mm
01:30 AM 56.7°F13.7°C 56.1°F13.4°C 98% 14.4 mph NW23.2 kmh NW 18.0 mph29.0 kmh 30.16 in1021.3 mb 0.00 in0.0 mm 0.00 in/hr0.0 mm/hr 0.00 in0.0 mm
02:00 AM 56.3°F13.5°C 55.7°F13.2°C 98% 12.6 mph NW20.3 kmh NW 14.0 mph22.5 kmh 30.17 in1021.7 mb 0.00 in0.0 mm 0.00 in/hr0.0 mm/hr 0.00 in0.0 mm
02:30 AM 56.4°F13.6°C 55.8°F13.2°C 98% 13.4 mph NW21.6 kmh NW 18.0 mph29.0 kmh 30.17 in1021.7 mb 0.00 in0.0 mm 0.00 in/hr0.0 mm/hr 0.00 in0.0 mm
03:00 AM 56.3°F13.5°C 55.8°F13.2°C 98% 15.5 mph NW24.9 kmh NW 22.0 mph35.4 kmh 30.16 in1021.3 mb 0.00 in0.0 mm 0.00 in/hr0.0 mm/hr 0.00 in0.0 mm
03:30 AM 57.1°F13.9°C 56.5°F13.6°C 98% 16.6 mph NW26.7 kmh NW 21.0 mph33.8 kmh 30.16 in1021.3 mb 0.00 in0.0 mm 0.00 in/hr0.0 mm/hr 0.00 in0.0 mm
04:00 AM 57.0°F13.9°C 56.4°F13.6°C 98% 17.0 mph NW27.4 kmh NW 20.0 mph32.2 kmh 30.16 in1021.3 mb 0.00 in0.0 mm 0.00 in/hr0.0 mm/hr 0.00 in0.0 mm
04:30 AM 57.0°F13.9°C 56.4°F13.6°C 98% 20.8 mph WNW33.5 kmh WNW 24.0 mph38.6 kmh 30.15 in1021.0 mb 0.00 in0.0 mm 0.00 in/hr0.0 mm/hr 0.00 in0.0 mm
05:00 AM 57.0°F13.9°C 56.4°F13.6°C 98% 13.5 mph NW21.7 kmh NW 17.0 mph27.4 kmh 30.17 in1021.7 mb 0.00 in0.0 mm 0.00 in/hr0.0 mm/hr 0.00 in0.0 mm
05:30 AM 57.1°F13.9°C 56.5°F13.6°C 98% 15.2 mph NW24.5 kmh NW 21.0 mph33.8 kmh 30.18 in1022.0 mb 0.00 in0.0 mm 0.00 in/hr0.0 mm/hr 0.00 in0.0 mm
06:00 AM 57.3°F14.1°C 56.7°F13.7°C 98% 11.1 mph NNW17.9 kmh NNW 14.0 mph22.5 kmh 30.20 in1022.7 mb 0.00 in0.0 mm 0.00 in/hr0.0 mm/hr 0.00 in0.0 mm
06:30 AM 54.8°F12.7°C 54.3°F12.4°C 98% 4.7 mph E7.6 kmh E 7.0 mph11.3 kmh 30.22 in1023.4 mb 0.00 in0.0 mm 0.00 in/hr0.0 mm/hr 0.00 in0.0 mm
07:00 AM 52.9°F11.6°C 52.4°F11.3°C 98% 3.6 mph E5.8 kmh E 4.0 mph6.4 kmh 30.23 in1023.7 mb 0.00 in0.0 mm 0.00 in/hr0.0 mm/hr 0.00 in0.0 mm
07:30 AM 52.6°F11.4°C 52.1°F11.2°C 98% 3.2 mph E5.1 kmh E 4.0 mph6.4 kmh 30.23 in1023.7 mb 0.00 in0.0 mm 0.00 in/hr0.0 mm/hr 0.00 in0.0 mm
08:00 AM 52.6°F11.4°C 52.1°F11.2°C 98% 3.4 mph E5.5 kmh E 6.0 mph9.7 kmh 30.25 in1024.4 mb 0.00 in0.0 mm 0.00 in/hr0.0 mm/hr 0.00 in0.0 mm
08:30 AM 53.2°F11.8°C 52.6°F11.4°C 98% Calm Calm -- 30.25 in1024.4 mb 0.00 in0.0 mm 0.00 in/hr0.0 mm/hr 0.00 in0.0 mm
09:00 AM 56.2°F13.4°C 55.6°F13.1°C 98% 3.4 mph WNW5.5 kmh WNW 9.0 mph14.5 kmh 30.26 in1024.7 mb 0.00 in0.0 mm 0.00 in/hr0.0 mm/hr 0.00 in0.0 mm
09:30 AM 57.9°F14.4°C 57.3°F14.1°C 98% 16.6 mph NW26.7 kmh NW 17.0 mph27.4 kmh 30.26 in1024.7 mb 0.00 in0.0 mm 0.00 in/hr0.0 mm/hr 0.00 in0.0 mm
10:00 AM 60.0°F15.6°C 59.4°F15.2°C 98% 15.4 mph NNW24.8 kmh NNW 17.0 mph27.4 kmh 30.26 in1024.7 mb 0.00 in0.0 mm 0.00 in/hr0.0 mm/hr 0.00 in0.0 mm
10:30 AM 60.8°F16.0°C 60.2°F15.7°C 98% 18.5 mph W29.8 kmh W 22.0 mph35.4 kmh 30.27 in1025.1 mb 0.00 in0.0 mm 0.00 in/hr0.0 mm/hr 0.00 in0.0 mm
11:00 AM 61.9°F16.6°C 61.3°F16.3°C 98% 17.1 mph WNW27.5 kmh WNW 22.0 mph35.4 kmh 30.27 in1025.1 mb 0.00 in0.0 mm 0.00 in/hr0.0 mm/hr 0.00 in0.0 mm
11:30 AM 62.4°F16.9°C 61.8°F16.6°C 98% 18.8 mph NW30.3 kmh NW 26.0 mph41.8 kmh 30.27 in1025.1 mb 0.00 in0.0 mm 0.00 in/hr0.0 mm/hr 0.00 in0.0 mm
12:00 PM 62.8°F17.1°C 62.2°F16.8°C 98% 18.7 mph WNW30.1 kmh WNW 23.0 mph37.0 kmh 30.26 in1024.7 mb 0.00 in0.0 mm 0.00 in/hr0.0 mm/hr 0.00 in0.0 mm
12:30 PM 62.5°F16.9°C 61.9°F16.6°C 98% 17.9 mph NW28.8 kmh NW 22.0 mph35.4 kmh 30.25 in1024.4 mb 0.00 in0.0 mm 0.00 in/hr0.0 mm/hr 0.00 in0.0 mm
01:00 PM 63.2°F17.3°C 62.6°F17.0°C 98% 20.7 mph WNW33.3 kmh WNW 24.0 mph38.6 kmh 30.25 in1024.4 mb 0.00 in0.0 mm 0.00 in/hr0.0 mm/hr 0.00 in0.0 mm
01:30 PM 63.5°F17.5°C 62.9°F17.2°C 98% 18.3 mph NW29.5 kmh NW 23.0 mph37.0 kmh 30.25 in1024.4 mb 0.00 in0.0 mm 0.00 in/hr0.0 mm/hr 0.00 in0.0 mm
02:00 PM 63.8°F17.7°C 63.2°F17.3°C 98% 12.1 mph W19.5 kmh W 20.0 mph32.2 kmh 30.24 in1024.0 mb 0.00 in0.0 mm 0.00 in/hr0.0 mm/hr 0.00 in0.0 mm
02:30 PM 63.6°F17.6°C 63.0°F17.2°C 98% 19.6 mph WNW31.5 kmh WNW 24.0 mph38.6 kmh 30.24 in1024.0 mb 0.00 in0.0 mm 0.00 in/hr0.0 mm/hr 0.00 in0.0 mm
03:00 PM 62.8°F17.1°C 62.3°F16.8°C 98% 18.1 mph NW29.1 kmh NW 23.0 mph37.0 kmh 30.23 in1023.7 mb 0.00 in0.0 mm 0.00 in/hr0.0 mm/hr 0.00 in0.0 mm
03:30 PM 61.9°F16.6°C 61.4°F16.3°C 98% 20.1 mph NW32.3 kmh NW 26.0 mph41.8 kmh 30.23 in1023.7 mb 0.00 in0.0 mm 0.00 in/hr0.0 mm/hr 0.00 in0.0 mm
04:00 PM 61.2°F16.2°C 60.7°F15.9°C 98% 18.0 mph NW29.0 kmh NW 23.0 mph37.0 kmh 30.22 in1023.4 mb 0.00 in0.0 mm 0.00 in/hr0.0 mm/hr 0.00 in0.0 mm
04:30 PM 60.8°F16.0°C 60.2°F15.7°C 98% 18.2 mph NW29.3 kmh NW 21.0 mph33.8 kmh 30.23 in1023.7 mb 0.00 in0.0 mm 0.00 in/hr0.0 mm/hr 0.00 in0.0 mm
05:00 PM 59.7°F15.4°C 59.1°F15.1°C 98% 15.3 mph W24.6 kmh W 17.0 mph27.4 kmh 30.24 in1024.0 mb 0.00 in0.0 mm 0.00 in/hr0.0 mm/hr 0.00 in0.0 mm
05:30 PM 58.1°F14.5°C 57.5°F14.2°C 98% 11.4 mph WNW18.3 kmh WNW 16.0 mph25.7 kmh 30.25 in1024.4 mb 0.00 in0.0 mm 0.00 in/hr0.0 mm/hr 0.00 in0.0 mm
06:00 PM 57.7°F14.3°C 57.1°F13.9°C 98% 12.8 mph NW20.6 kmh NW 13.0 mph20.9 kmh 30.27 in1025.1 mb 0.00 in0.0 mm 0.00 in/hr0.0 mm/hr 0.00 in0.0 mm
06:30 PM 57.0°F13.9°C 56.4°F13.6°C 98% 6.1 mph WNW9.8 kmh WNW 8.0 mph12.9 kmh 30.28 in1025.4 mb 0.00 in0.0 mm 0.00 in/hr0.0 mm/hr 0.00 in0.0 mm
07:00 PM 56.6°F13.7°C 56.0°F13.3°C 98% Calm Calm -- 30.29 in1025.7 mb 0.00 in0.0 mm 0.00 in/hr0.0 mm/hr 0.00 in0.0 mm
07:30 PM 56.6°F13.7°C 56.0°F13.3°C 98% 5.2 mph NW8.4 kmh NW 7.0 mph11.3 kmh 30.30 in1026.1 mb 0.00 in0.0 mm 0.00 in/hr0.0 mm/hr 0.00 in0.0 mm
08:00 PM 56.0°F13.3°C 55.4°F13.0°C 98% Calm Calm -- 30.29 in1025.7 mb 0.00 in0.0 mm 0.00 in/hr0.0 mm/hr 0.00 in0.0 mm
08:30 PM 56.3°F13.5°C 55.7°F13.2°C 98% 0.5 mph N0.8 kmh N 4.0 mph6.4 kmh 30.30 in1026.1 mb 0.00 in0.0 mm 0.00 in/hr0.0 mm/hr 0.00 in0.0 mm
09:00 PM 56.1°F13.4°C 55.5°F13.1°C 98% 8.2 mph NW13.2 kmh NW 11.0 mph17.7 kmh 30.30 in1026.1 mb 0.00 in0.0 mm 0.00 in/hr0.0 mm/hr 0.00 in0.0 mm
09:30 PM 55.1°F12.8°C 54.6°F12.6°C 98% 8.1 mph W13.0 kmh W 10.0 mph16.1 kmh 30.29 in1025.7 mb 0.00 in0.0 mm 0.00 in/hr0.0 mm/hr 0.00 in0.0 mm
10:00 PM 55.5°F13.1°C 54.9°F12.7°C 98% 0.7 mph NNE1.1 kmh NNE 2.0 mph3.2 kmh 30.29 in1025.7 mb 0.00 in0.0 mm 0.00 in/hr0.0 mm/hr 0.00 in0.0 mm
10:30 PM 54.7°F12.6°C 54.1°F12.3°C 98% 2.6 mph NNW4.2 kmh NNW 4.0 mph6.4 kmh 30.30 in1026.1 mb 0.00 in0.0 mm 0.00 in/hr0.0 mm/hr 0.00 in0.0 mm
11:00 PM 54.2°F12.3°C 53.6°F12.0°C 98% Calm Calm -- 30.30 in1026.1 mb 0.00 in0.0 mm 0.00 in/hr0.0 mm/hr 0.00 in0.0 mm
11:30 PM 54.1°F12.3°C 53.6°F12.0°C 98% Calm Calm -- 30.30 in1026.1 mb 0.00 in0.0 mm 0.00 in/hr0.0 mm/hr 0.00 in0.0 mm